createdAt,value
2023-04-24T00:01:54.821Z,98.92
2023-04-24T00:05:57.771Z,96.13
2023-04-24T00:10:00.979Z,98.71
2023-04-24T00:14:08.568Z,98.00
2023-04-24T00:18:11.352Z,98.35
2023-04-24T00:22:16.655Z,97.99
2023-04-24T00:26:19.426Z,98.37
2023-04-24T00:30:23.694Z,97.91
2023-04-24T00:34:26.712Z,98.65
2023-04-24T00:38:29.395Z,97.65
2023-04-24T00:42:32.344Z,98.43
2023-04-24T00:46:36.589Z,97.81
2023-04-24T00:50:40.509Z,98.20
2023-04-24T00:54:43.457Z,98.79
2023-04-24T00:58:46.894Z,97.45
2023-04-24T01:02:53.131Z,97.64
2023-04-24T01:06:57.715Z,97.32
2023-04-24T01:11:00.721Z,97.51
2023-04-24T01:15:05.003Z,98.18
2023-04-24T01:19:09.855Z,96.83
2023-04-24T01:23:14.222Z,97.29
2023-04-24T01:27:17.567Z,97.91
2023-04-24T01:31:20.889Z,97.80
2023-04-24T01:35:23.926Z,97.15
2023-04-24T01:39:29.559Z,97.99
2023-04-24T01:43:32.579Z,98.03
2023-04-24T01:47:35.380Z,97.96
2023-04-24T01:51:38.325Z,97.69
2023-04-24T01:55:42.652Z,99.46
2023-04-24T01:59:46.227Z,97.03
2023-04-24T02:03:49.364Z,97.25
2023-04-24T02:07:52.184Z,96.75
2023-04-24T02:11:57.668Z,96.16
2023-04-24T02:16:00.620Z,96.71
2023-04-24T02:20:03.911Z,96.98
2023-04-24T02:24:06.822Z,97.98
2023-04-24T02:28:11.057Z,96.89
2023-04-24T02:32:16.919Z,97.15
2023-04-24T02:36:19.752Z,96.11
2023-04-24T02:40:22.604Z,96.47
2023-04-24T02:44:27.267Z,96.49
2023-04-24T02:48:30.067Z,97.67
2023-04-24T02:52:33.448Z,98.05
2023-04-24T02:56:36.222Z,97.74
2023-04-24T03:00:41.220Z,96.92
2023-04-24T03:04:44.224Z,96.77
2023-04-24T03:08:47.142Z,96.16
2023-04-24T03:12:50.052Z,96.64
2023-04-24T03:16:54.118Z,98.18
2023-04-24T03:20:57.075Z,97.73
2023-04-24T03:24:59.838Z,96.95
2023-04-24T03:29:03.053Z,97.75
2023-04-24T03:33:07.575Z,96.89
2023-04-24T03:37:10.434Z,96.48
2023-04-24T03:41:13.397Z,96.82
2023-04-24T03:45:16.819Z,96.97
2023-04-24T03:49:22.445Z,97.14
2023-04-24T03:53:26.058Z,96.33
2023-04-24T03:57:28.795Z,95.91
2023-04-24T04:01:31.851Z,96.80
2023-04-24T04:05:36.539Z,98.07
2023-04-24T04:09:39.341Z,98.16
2023-04-24T04:13:42.199Z,97.10
2023-04-24T04:17:45.142Z,97.71
2023-04-24T04:21:53.160Z,95.82
2023-04-24T04:25:56.106Z,97.99
2023-04-24T04:29:58.798Z,96.10
2023-04-24T04:34:02.699Z,97.55
2023-04-24T04:38:09.567Z,95.87
2023-04-24T04:42:12.805Z,96.80
2023-04-24T04:46:15.530Z,97.01
2023-04-24T04:50:20.496Z,97.99
2023-04-24T04:54:24.898Z,97.32
2023-04-24T04:58:27.886Z,97.61
2023-04-24T05:02:30.727Z,96.02
2023-04-24T05:06:33.882Z,96.41
2023-04-24T05:10:38.701Z,97.02
2023-04-24T05:14:41.996Z,95.72
2023-04-24T05:18:45.154Z,96.40
2023-04-24T05:22:47.766Z,95.42
2023-04-24T05:26:52.359Z,95.33
2023-04-24T05:30:55.278Z,95.63
2023-04-24T05:34:59.013Z,95.80
2023-04-24T05:39:04.321Z,94.91
2023-04-24T05:43:08.584Z,95.55
2023-04-24T05:47:11.350Z,96.55
2023-04-24T05:51:14.445Z,95.79
2023-04-24T05:55:19.466Z,96.58
2023-04-24T05:59:24.767Z,97.00
2023-04-24T06:03:27.952Z,96.65
2023-04-24T06:07:31.178Z,94.74
2023-04-24T06:11:33.929Z,93.92
2023-04-24T06:15:38.423Z,95.77
2023-04-24T06:19:41.653Z,93.01
2023-04-24T06:23:44.526Z,94.70
2023-04-24T06:27:47.277Z,95.94
2023-04-24T06:31:51.699Z,93.96
2023-04-24T06:35:57.080Z,94.69
2023-04-24T06:40:00.238Z,94.55
2023-04-24T06:44:03.350Z,93.56
2023-04-24T06:48:07.613Z,95.51
2023-04-24T06:52:10.526Z,93.77
2023-04-24T06:56:14.344Z,94.92
2023-04-24T07:00:18.681Z,93.74
2023-04-24T07:04:23.053Z,92.67
2023-04-24T07:08:26.488Z,92.82
2023-04-24T07:12:29.144Z,93.67
2023-04-24T07:16:32.018Z,92.73
2023-04-24T07:20:36.600Z,91.77
2023-04-24T07:24:39.253Z,91.04
2023-04-24T07:28:42.369Z,91.64
2023-04-24T07:32:45.019Z,92.44
2023-04-24T07:36:49.376Z,92.79
2023-04-24T07:40:52.289Z,93.06
2023-04-24T07:44:55.072Z,92.77
2023-04-24T07:49:11.681Z,92.03
2023-04-24T07:53:17.561Z,92.99
2023-04-24T07:57:20.868Z,93.83
2023-04-24T08:01:23.616Z,92.93
2023-04-24T08:05:28.429Z,91.10
2023-04-24T08:09:32.653Z,92.91
2023-04-24T08:13:35.269Z,91.56
2023-04-24T08:17:38.005Z,92.07
2023-04-24T08:21:40.694Z,93.64
2023-04-24T08:25:44.649Z,90.64
2023-04-24T08:29:47.281Z,92.03
2023-04-24T08:33:49.915Z,92.51
2023-04-24T08:37:55.580Z,91.38
2023-04-24T08:42:06.129Z,92.55
2023-04-24T08:46:12.176Z,91.67
2023-04-24T08:50:16.265Z,93.56
2023-04-24T08:54:18.735Z,91.25
2023-04-24T08:58:23.177Z,91.01
2023-04-24T09:02:27.339Z,91.52
2023-04-24T09:06:31.239Z,91.08
2023-04-24T09:10:33.679Z,92.35
2023-04-24T09:14:40.132Z,90.56
2023-04-24T09:18:42.826Z,91.19
2023-04-24T09:22:47.296Z,91.68
2023-04-24T09:26:50.599Z,91.00
2023-04-24T09:31:06.522Z,91.43
2023-04-24T09:35:11.405Z,90.42
2023-04-24T09:39:16.495Z,87.78
2023-04-24T09:43:19.292Z,88.36
2023-04-24T09:47:23.350Z,85.91
2023-04-24T09:51:36.293Z,82.01
2023-04-24T09:55:41.939Z,80.06
2023-04-24T09:59:46.200Z,82.03
2023-04-24T10:03:50.365Z,77.06
2023-04-24T10:07:53.769Z,77.30
2023-04-24T10:11:56.830Z,75.52
2023-04-24T10:16:01.244Z,80.55
2023-04-24T10:20:07.221Z,82.01
2023-04-24T10:24:11.016Z,80.40
2023-04-24T10:28:14.248Z,81.50
2023-04-24T10:32:16.853Z,81.34
2023-04-24T10:36:21.069Z,79.84
2023-04-24T10:40:28.625Z,80.59
2023-04-24T10:44:38.850Z,80.47
2023-04-24T10:48:45.105Z,80.69
2023-04-24T10:52:52.345Z,79.58
2023-04-24T10:56:55.611Z,76.23
2023-04-24T11:00:59.599Z,74.04
2023-04-24T11:05:05.179Z,76.28
2023-04-24T11:09:13.310Z,78.63
2023-04-24T11:13:23.988Z,78.12
2023-04-24T11:17:32.101Z,80.44
2023-04-24T11:21:41.988Z,78.70
2023-04-24T11:25:47.637Z,77.35
2023-04-24T11:29:51.510Z,79.32
2023-04-24T11:33:54.946Z,77.31
2023-04-24T11:42:07.824Z,78.18
2023-04-24T11:46:10.591Z,80.16
2023-04-24T11:50:15.488Z,83.85
2023-04-24T11:54:18.175Z,84.95
2023-04-24T11:58:24.279Z,84.62
2023-04-24T12:02:28.205Z,82.86
2023-04-24T12:06:31.730Z,80.22
2023-04-24T12:10:35.678Z,77.66
2023-04-24T12:14:52.534Z,78.85
2023-04-24T12:18:55.304Z,78.30
2023-04-24T12:22:59.194Z,76.77
2023-04-24T12:27:02.556Z,75.78
2023-04-24T12:31:06.581Z,76.92
2023-04-24T12:35:09.945Z,72.59
2023-04-24T12:39:16.437Z,71.82
2023-04-24T12:43:20.447Z,70.72
2023-04-24T12:47:24.738Z,74.58
2023-04-24T12:51:27.405Z,75.02
2023-04-24T12:55:30.214Z,79.65
2023-04-24T12:59:32.901Z,79.87
2023-04-24T13:03:37.640Z,81.06
2023-04-24T13:07:40.416Z,81.96
2023-04-24T13:11:43.063Z,81.53
2023-04-24T13:15:45.732Z,79.22
2023-04-24T13:19:52.424Z,76.91
2023-04-24T13:23:57.315Z,75.05
2023-04-24T13:27:59.906Z,73.75
2023-04-24T13:32:03.027Z,73.81
2023-04-24T13:36:07.267Z,70.75
2023-04-24T13:40:11.287Z,71.20
2023-04-24T13:44:14.018Z,70.30
2023-04-24T13:48:16.879Z,69.54
2023-04-24T13:52:21.280Z,70.34
2023-04-24T13:56:24.365Z,72.01
2023-04-24T14:00:27.276Z,70.53
2023-04-24T14:04:30.101Z,71.63
2023-04-24T14:08:34.612Z,70.73
2023-04-24T14:12:37.385Z,72.41
2023-04-24T14:16:40.191Z,72.74
2023-04-24T14:20:43.296Z,67.80
2023-04-24T14:24:47.268Z,68.95
2023-04-24T14:28:51.116Z,67.09
2023-04-24T14:32:55.140Z,68.31
2023-04-24T14:36:57.874Z,67.10
2023-04-24T14:41:06.808Z,64.59
2023-04-24T14:45:12.561Z,66.31
2023-04-24T14:49:15.426Z,67.54
2023-04-24T14:53:18.269Z,65.86
2023-04-24T14:57:22.305Z,67.82
2023-04-24T15:01:26.539Z,65.65
2023-04-24T15:05:29.904Z,68.10
2023-04-24T15:09:33.577Z,68.63
2023-04-24T15:13:37.641Z,69.28
2023-04-24T15:17:40.358Z,71.94
2023-04-24T15:21:44.107Z,70.46
2023-04-24T15:25:47.030Z,68.32
2023-04-24T15:29:51.068Z,70.64
2023-04-24T15:33:56.106Z,70.70
2023-04-24T15:37:58.837Z,70.66
2023-04-24T15:42:01.573Z,70.60
2023-04-24T15:46:05.656Z,71.56
2023-04-24T15:50:12.779Z,73.25
2023-04-24T15:54:16.965Z,75.48
2023-04-24T15:58:20.555Z,74.68
2023-04-24T16:02:24.591Z,76.28
2023-04-24T16:06:27.912Z,77.68
2023-04-24T16:10:30.641Z,77.33
2023-04-24T16:14:33.311Z,75.06
2023-04-24T16:18:37.375Z,77.08
2023-04-24T16:22:40.195Z,75.62
2023-04-24T16:26:43.401Z,74.77
2023-04-24T16:30:46.036Z,75.73
2023-04-24T16:34:50.568Z,76.00
2023-04-24T16:38:53.214Z,75.80
2023-04-24T16:42:55.849Z,75.05
2023-04-24T16:46:58.569Z,77.55
2023-04-24T16:51:02.786Z,75.11
2023-04-24T16:55:06.084Z,76.03
2023-04-24T16:59:08.865Z,75.71
2023-04-24T17:03:12.894Z,73.80
2023-04-24T17:07:17.629Z,75.15
2023-04-24T17:11:21.104Z,76.01
2023-04-24T17:15:23.717Z,77.60
2023-04-24T17:19:27.012Z,77.60
2023-04-24T17:23:31.220Z,76.49
2023-04-24T17:27:34.210Z,77.19
2023-04-24T17:31:37.061Z,78.25
2023-04-24T17:35:39.741Z,80.27
2023-04-24T17:39:43.691Z,80.37
2023-04-24T17:43:46.461Z,79.50
2023-04-24T17:47:50.622Z,78.62
2023-04-24T17:51:54.527Z,78.89
2023-04-24T17:56:01.930Z,79.32
2023-04-24T18:00:05.246Z,78.82
2023-04-24T18:04:08.119Z,79.90
2023-04-24T18:08:11.422Z,79.44
2023-04-24T18:12:16.035Z,78.97
2023-04-24T18:16:18.898Z,78.26
2023-04-24T18:20:21.749Z,80.12
2023-04-24T18:24:24.548Z,81.22
2023-04-24T18:28:31.429Z,81.67
2023-04-24T18:32:34.151Z,81.83
2023-04-24T18:36:36.998Z,82.05
2023-04-24T18:40:39.774Z,82.82
2023-04-24T18:44:43.746Z,83.19
2023-04-24T18:48:46.571Z,85.99
2023-04-24T18:52:49.466Z,85.88
2023-04-24T18:56:54.869Z,85.82
2023-04-24T19:00:58.931Z,87.61
2023-04-24T19:05:01.619Z,86.79
2023-04-24T19:09:04.394Z,86.99
2023-04-24T19:13:07.087Z,87.00
2023-04-24T19:17:11.169Z,87.24
2023-04-24T19:21:14.415Z,83.94
2023-04-24T19:25:17.106Z,84.47
2023-04-24T19:29:19.956Z,83.31
2023-04-24T19:33:24.055Z,82.57
2023-04-24T19:37:26.777Z,82.47
2023-04-24T19:41:29.694Z,83.82
2023-04-24T19:45:32.375Z,84.07
2023-04-24T19:49:36.454Z,84.16
2023-04-24T19:53:39.358Z,85.20
2023-04-24T19:57:42.458Z,86.49
2023-04-24T20:01:45.181Z,86.84
2023-04-24T20:05:49.225Z,86.08
2023-04-24T20:09:52.094Z,87.85
2023-04-24T20:13:54.882Z,88.32
2023-04-24T20:17:57.501Z,88.81
2023-04-24T20:22:01.976Z,90.10
2023-04-24T20:26:05.022Z,90.71
2023-04-24T20:30:12.780Z,91.92
2023-04-24T20:34:15.549Z,90.12
2023-04-24T20:38:19.533Z,92.25
2023-04-24T20:42:22.156Z,92.04
2023-04-24T20:46:24.783Z,91.81
2023-04-24T20:50:27.785Z,91.27
2023-04-24T20:54:31.763Z,94.44
2023-04-24T20:58:34.214Z,95.89
2023-04-24T21:02:36.896Z,97.08
2023-04-24T21:06:39.591Z,94.23
2023-04-24T21:10:43.562Z,97.27
2023-04-24T21:14:46.176Z,96.18
2023-04-24T21:18:48.820Z,94.03
2023-04-24T21:22:51.455Z,94.78
2023-04-24T21:26:55.460Z,94.74
2023-04-24T21:30:58.175Z,94.41
2023-04-24T21:35:00.800Z,93.63
2023-04-24T21:39:03.425Z,95.27
2023-04-24T21:43:07.406Z,95.92
2023-04-24T21:47:10.532Z,95.49
2023-04-24T21:51:14.127Z,95.31
2023-04-24T21:55:16.983Z,94.98
2023-04-24T21:59:21.108Z,95.26
2023-04-24T22:03:25.984Z,96.04
2023-04-24T22:07:28.877Z,96.31
2023-04-24T22:11:31.554Z,94.66
2023-04-24T22:15:35.609Z,94.64
2023-04-24T22:19:38.886Z,95.48
2023-04-24T22:23:42.932Z,95.60
2023-04-24T22:27:45.588Z,96.54
2023-04-24T22:31:50.422Z,96.38
2023-04-24T22:35:53.159Z,95.92
2023-04-24T22:39:56.231Z,95.94
2023-04-24T22:43:58.918Z,96.38
2023-04-24T22:48:08.180Z,95.91
2023-04-24T22:52:15.702Z,96.87
2023-04-24T22:56:28.957Z,96.24
2023-04-24T23:00:36.250Z,96.29
2023-04-24T23:05:15.344Z,96.90
2023-04-24T23:09:22.890Z,95.71
2023-04-24T23:13:31.973Z,96.43
2023-04-24T23:22:35.204Z,96.97
2023-04-24T23:26:52.465Z,96.95
2023-04-24T23:31:16.923Z,97.00
2023-04-24T23:35:27.547Z,97.56
2023-04-24T23:39:36.516Z,96.25
2023-04-24T23:43:45.542Z,98.17
2023-04-24T23:48:08.748Z,98.65
2023-04-24T23:56:34.570Z,98.07
